sensor_id;sensor_type;location;lat;lon;timestamp;P1;durP1;ratioP1;P2;durP2;ratioP2
51780;SDS011;37844;57.126;24.288;2022-12-29T00:01:51;43.70;;;27.20;;
51780;SDS011;37844;57.126;24.288;2022-12-29T00:04:17;40.08;;;27.60;;
51780;SDS011;37844;57.126;24.288;2022-12-29T00:06:43;39.55;;;27.17;;
51780;SDS011;37844;57.126;24.288;2022-12-29T00:09:12;40.05;;;26.25;;
51780;SDS011;37844;57.126;24.288;2022-12-29T00:11:38;40.20;;;29.52;;
51780;SDS011;37844;57.126;24.288;2022-12-29T00:14:04;36.72;;;26.23;;
51780;SDS011;37844;57.126;24.288;2022-12-29T00:16:48;39.28;;;27.58;;
51780;SDS011;37844;57.126;24.288;2022-12-29T00:19:14;39.58;;;27.42;;
51780;SDS011;37844;57.126;24.288;2022-12-29T00:21:58;37.65;;;24.60;;
51780;SDS011;37844;57.126;24.288;2022-12-29T00:24:43;34.60;;;25.52;;
51780;SDS011;37844;57.126;24.288;2022-12-29T00:27:28;38.90;;;29.00;;
51780;SDS011;37844;57.126;24.288;2022-12-29T00:30:20;38.75;;;27.48;;
51780;SDS011;37844;57.126;24.288;2022-12-29T00:33:12;34.42;;;26.27;;
51780;SDS011;37844;57.126;24.288;2022-12-29T00:36:02;39.95;;;27.80;;
51780;SDS011;37844;57.126;24.288;2022-12-29T00:38:39;37.92;;;25.48;;
51780;SDS011;37844;57.126;24.288;2022-12-29T00:41:27;34.55;;;25.27;;
51780;SDS011;37844;57.126;24.288;2022-12-29T00:44:11;36.88;;;24.42;;
51780;SDS011;37844;57.126;24.288;2022-12-29T00:46:38;43.72;;;26.80;;
51780;SDS011;37844;57.126;24.288;2022-12-29T00:49:08;35.30;;;25.55;;
51780;SDS011;37844;57.126;24.288;2022-12-29T00:51:54;37.28;;;26.73;;
51780;SDS011;37844;57.126;24.288;2022-12-29T00:54:25;38.58;;;26.98;;
51780;SDS011;37844;57.126;24.288;2022-12-29T00:56:51;33.53;;;24.33;;
51780;SDS011;37844;57.126;24.288;2022-12-29T00:59:18;36.30;;;26.42;;
51780;SDS011;37844;57.126;24.288;2022-12-29T01:01:44;40.58;;;26.20;;
51780;SDS011;37844;57.126;24.288;2022-12-29T01:04:10;36.15;;;24.75;;
51780;SDS011;37844;57.126;24.288;2022-12-29T01:06:39;38.13;;;25.95;;
51780;SDS011;37844;57.126;24.288;2022-12-29T01:09:05;36.30;;;26.38;;
51780;SDS011;37844;57.126;24.288;2022-12-29T01:11:50;30.92;;;23.55;;
51780;SDS011;37844;57.126;24.288;2022-12-29T01:14:16;36.17;;;25.30;;
51780;SDS011;37844;57.126;24.288;2022-12-29T01:16:43;32.90;;;24.55;;
51780;SDS011;37844;57.126;24.288;2022-12-29T01:19:08;35.72;;;26.10;;
51780;SDS011;37844;57.126;24.288;2022-12-29T01:21:34;34.00;;;23.45;;
51780;SDS011;37844;57.126;24.288;2022-12-29T01:23:59;37.47;;;25.38;;
51780;SDS011;37844;57.126;24.288;2022-12-29T01:26:25;34.33;;;24.08;;
51780;SDS011;37844;57.126;24.288;2022-12-29T01:28:50;38.00;;;26.95;;
51780;SDS011;37844;57.126;24.288;2022-12-29T01:31:16;40.42;;;23.98;;
51780;SDS011;37844;57.126;24.288;2022-12-29T01:33:42;32.80;;;23.58;;
51780;SDS011;37844;57.126;24.288;2022-12-29T01:36:10;35.55;;;25.52;;
51780;SDS011;37844;57.126;24.288;2022-12-29T01:38:37;36.40;;;25.33;;
51780;SDS011;37844;57.126;24.288;2022-12-29T01:41:04;34.90;;;25.50;;
51780;SDS011;37844;57.126;24.288;2022-12-29T01:46:40;33.58;;;25.00;;
51780;SDS011;37844;57.126;24.288;2022-12-29T01:51:33;31.85;;;23.27;;
51780;SDS011;37844;57.126;24.288;2022-12-29T01:54:04;34.20;;;22.88;;
51780;SDS011;37844;57.126;24.288;2022-12-29T01:56:34;29.65;;;21.65;;
51780;SDS011;37844;57.126;24.288;2022-12-29T01:59:02;33.03;;;20.65;;
51780;SDS011;37844;57.126;24.288;2022-12-29T02:01:36;33.17;;;23.33;;
51780;SDS011;37844;57.126;24.288;2022-12-29T02:04:02;28.92;;;20.95;;
51780;SDS011;37844;57.126;24.288;2022-12-29T02:06:29;33.08;;;22.83;;
51780;SDS011;37844;57.126;24.288;2022-12-29T02:08:58;30.48;;;23.10;;
51780;SDS011;37844;57.126;24.288;2022-12-29T02:11:25;33.40;;;22.50;;
51780;SDS011;37844;57.126;24.288;2022-12-29T02:13:53;34.65;;;22.63;;
51780;SDS011;37844;57.126;24.288;2022-12-29T02:45:56;43.17;;;26.70;;
51780;SDS011;37844;57.126;24.288;2022-12-29T02:48:37;33.85;;;23.83;;
51780;SDS011;37844;57.126;24.288;2022-12-29T02:51:12;34.78;;;24.27;;
51780;SDS011;37844;57.126;24.288;2022-12-29T02:53:45;34.38;;;23.67;;
51780;SDS011;37844;57.126;24.288;2022-12-29T02:56:29;37.78;;;25.80;;
51780;SDS011;37844;57.126;24.288;2022-12-29T02:58:55;37.65;;;23.52;;
51780;SDS011;37844;57.126;24.288;2022-12-29T03:09:36;37.58;;;24.25;;
51780;SDS011;37844;57.126;24.288;2022-12-29T03:20:12;36.80;;;21.05;;
51780;SDS011;37844;57.126;24.288;2022-12-29T03:22:43;40.88;;;25.65;;
51780;SDS011;37844;57.126;24.288;2022-12-29T03:25:29;39.65;;;24.23;;
51780;SDS011;37844;57.126;24.288;2022-12-29T03:27:58;38.05;;;25.90;;
51780;SDS011;37844;57.126;24.288;2022-12-29T03:30:38;34.03;;;22.48;;
51780;SDS011;37844;57.126;24.288;2022-12-29T03:33:12;46.15;;;26.30;;
51780;SDS011;37844;57.126;24.288;2022-12-29T03:35:47;42.17;;;26.27;;
51780;SDS011;37844;57.126;24.288;2022-12-29T03:38:24;35.72;;;23.00;;
51780;SDS011;37844;57.126;24.288;2022-12-29T03:40:55;34.22;;;22.70;;
51780;SDS011;37844;57.126;24.288;2022-12-29T03:43:23;38.28;;;23.35;;
51780;SDS011;37844;57.126;24.288;2022-12-29T03:45:50;42.28;;;22.73;;
51780;SDS011;37844;57.126;24.288;2022-12-29T03:48:15;34.78;;;23.60;;
51780;SDS011;37844;57.126;24.288;2022-12-29T03:50:41;32.65;;;20.80;;
51780;SDS011;37844;57.126;24.288;2022-12-29T03:53:06;34.40;;;21.40;;
51780;SDS011;37844;57.126;24.288;2022-12-29T03:55:32;33.08;;;21.67;;
51780;SDS011;37844;57.126;24.288;2022-12-29T03:57:57;30.08;;;20.20;;
51780;SDS011;37844;57.126;24.288;2022-12-29T04:00:23;33.63;;;22.50;;
51780;SDS011;37844;57.126;24.288;2022-12-29T04:02:48;33.65;;;22.52;;
51780;SDS011;37844;57.126;24.288;2022-12-29T04:05:14;30.63;;;21.55;;
51780;SDS011;37844;57.126;24.288;2022-12-29T04:07:40;34.67;;;22.52;;
51780;SDS011;37844;57.126;24.288;2022-12-29T04:10:05;43.35;;;24.80;;
51780;SDS011;37844;57.126;24.288;2022-12-29T04:12:31;35.13;;;22.05;;
51780;SDS011;37844;57.126;24.288;2022-12-29T04:14:57;34.28;;;21.58;;
51780;SDS011;37844;57.126;24.288;2022-12-29T04:17:22;36.15;;;21.92;;
51780;SDS011;37844;57.126;24.288;2022-12-29T04:19:48;37.92;;;23.75;;
51780;SDS011;37844;57.126;24.288;2022-12-29T04:22:13;40.30;;;22.63;;
51780;SDS011;37844;57.126;24.288;2022-12-29T04:24:38;37.20;;;24.08;;
51780;SDS011;37844;57.126;24.288;2022-12-29T04:27:04;34.28;;;22.67;;
51780;SDS011;37844;57.126;24.288;2022-12-29T04:29:29;32.97;;;21.60;;
51780;SDS011;37844;57.126;24.288;2022-12-29T04:31:55;43.95;;;24.90;;
51780;SDS011;37844;57.126;24.288;2022-12-29T04:34:20;35.95;;;22.20;;
51780;SDS011;37844;57.126;24.288;2022-12-29T04:36:46;38.58;;;23.73;;
51780;SDS011;37844;57.126;24.288;2022-12-29T04:39:11;33.17;;;22.08;;
51780;SDS011;37844;57.126;24.288;2022-12-29T04:41:37;29.88;;;19.60;;
51780;SDS011;37844;57.126;24.288;2022-12-29T04:44:02;30.45;;;20.48;;
51780;SDS011;37844;57.126;24.288;2022-12-29T04:46:28;30.20;;;20.58;;
51780;SDS011;37844;57.126;24.288;2022-12-29T04:48:53;36.78;;;22.17;;
51780;SDS011;37844;57.126;24.288;2022-12-29T04:51:19;34.45;;;19.73;;
51780;SDS011;37844;57.126;24.288;2022-12-29T04:53:44;31.80;;;19.95;;
51780;SDS011;37844;57.126;24.288;2022-12-29T04:56:10;34.28;;;21.15;;
51780;SDS011;37844;57.126;24.288;2022-12-29T04:58:35;29.08;;;20.92;;
51780;SDS011;37844;57.126;24.288;2022-12-29T05:01:01;27.88;;;17.80;;
51780;SDS011;37844;57.126;24.288;2022-12-29T05:03:27;35.05;;;19.73;;
51780;SDS011;37844;57.126;24.288;2022-12-29T05:05:53;29.90;;;19.05;;
51780;SDS011;37844;57.126;24.288;2022-12-29T05:08:20;29.63;;;20.45;;
51780;SDS011;37844;57.126;24.288;2022-12-29T05:10:45;28.42;;;17.27;;
51780;SDS011;37844;57.126;24.288;2022-12-29T05:13:11;31.52;;;19.70;;
51780;SDS011;37844;57.126;24.288;2022-12-29T05:15:37;29.75;;;20.08;;
51780;SDS011;37844;57.126;24.288;2022-12-29T05:18:02;30.33;;;19.92;;
51780;SDS011;37844;57.126;24.288;2022-12-29T05:20:28;28.23;;;19.42;;
51780;SDS011;37844;57.126;24.288;2022-12-29T05:22:53;28.15;;;17.25;;
51780;SDS011;37844;57.126;24.288;2022-12-29T05:25:19;30.25;;;18.98;;
51780;SDS011;37844;57.126;24.288;2022-12-29T05:27:44;29.92;;;18.50;;
51780;SDS011;37844;57.126;24.288;2022-12-29T05:30:10;25.33;;;16.60;;
51780;SDS011;37844;57.126;24.288;2022-12-29T05:32:36;29.20;;;17.48;;
51780;SDS011;37844;57.126;24.288;2022-12-29T05:35:01;22.88;;;15.63;;
51780;SDS011;37844;57.126;24.288;2022-12-29T05:37:27;28.98;;;18.80;;
51780;SDS011;37844;57.126;24.288;2022-12-29T05:39:52;29.83;;;16.63;;
51780;SDS011;37844;57.126;24.288;2022-12-29T05:42:18;25.83;;;17.40;;
51780;SDS011;37844;57.126;24.288;2022-12-29T05:44:43;27.33;;;16.40;;
51780;SDS011;37844;57.126;24.288;2022-12-29T05:47:09;30.63;;;17.90;;
51780;SDS011;37844;57.126;24.288;2022-12-29T05:49:34;22.98;;;15.68;;
51780;SDS011;37844;57.126;24.288;2022-12-29T05:51:59;21.35;;;15.25;;
51780;SDS011;37844;57.126;24.288;2022-12-29T05:54:25;23.05;;;16.42;;
51780;SDS011;37844;57.126;24.288;2022-12-29T05:56:50;28.05;;;16.10;;
51780;SDS011;37844;57.126;24.288;2022-12-29T05:59:16;21.30;;;15.32;;
51780;SDS011;37844;57.126;24.288;2022-12-29T06:01:41;22.08;;;14.73;;
51780;SDS011;37844;57.126;24.288;2022-12-29T06:04:06;23.00;;;12.57;;
51780;SDS011;37844;57.126;24.288;2022-12-29T06:06:32;24.67;;;15.20;;
51780;SDS011;37844;57.126;24.288;2022-12-29T06:08:57;21.67;;;14.95;;
51780;SDS011;37844;57.126;24.288;2022-12-29T06:11:23;20.13;;;13.82;;
51780;SDS011;37844;57.126;24.288;2022-12-29T06:13:48;19.77;;;12.38;;
51780;SDS011;37844;57.126;24.288;2022-12-29T06:16:14;24.92;;;13.82;;
51780;SDS011;37844;57.126;24.288;2022-12-29T06:18:39;18.85;;;13.20;;
51780;SDS011;37844;57.126;24.288;2022-12-29T06:21:05;21.13;;;13.23;;
51780;SDS011;37844;57.126;24.288;2022-12-29T06:23:30;22.25;;;13.95;;
51780;SDS011;37844;57.126;24.288;2022-12-29T06:25:56;23.95;;;14.95;;
51780;SDS011;37844;57.126;24.288;2022-12-29T06:28:22;22.27;;;14.02;;
51780;SDS011;37844;57.126;24.288;2022-12-29T06:30:48;19.42;;;13.32;;
51780;SDS011;37844;57.126;24.288;2022-12-29T06:33:14;23.73;;;13.13;;
51780;SDS011;37844;57.126;24.288;2022-12-29T06:35:41;22.10;;;14.38;;
51780;SDS011;37844;57.126;24.288;2022-12-29T06:38:07;22.33;;;15.10;;
51780;SDS011;37844;57.126;24.288;2022-12-29T06:40:32;21.98;;;14.52;;
51780;SDS011;37844;57.126;24.288;2022-12-29T06:42:58;21.38;;;14.15;;
51780;SDS011;37844;57.126;24.288;2022-12-29T06:45:23;22.77;;;15.68;;
51780;SDS011;37844;57.126;24.288;2022-12-29T06:47:49;24.10;;;16.73;;
51780;SDS011;37844;57.126;24.288;2022-12-29T06:50:14;22.23;;;15.32;;
51780;SDS011;37844;57.126;24.288;2022-12-29T06:52:40;22.52;;;14.02;;
51780;SDS011;37844;57.126;24.288;2022-12-29T06:55:06;24.55;;;15.52;;
51780;SDS011;37844;57.126;24.288;2022-12-29T06:57:31;28.02;;;15.80;;
51780;SDS011;37844;57.126;24.288;2022-12-29T06:59:57;25.33;;;16.42;;
51780;SDS011;37844;57.126;24.288;2022-12-29T07:02:22;25.02;;;15.82;;
51780;SDS011;37844;57.126;24.288;2022-12-29T07:04:50;26.85;;;17.30;;
51780;SDS011;37844;57.126;24.288;2022-12-29T07:07:17;27.85;;;16.90;;
51780;SDS011;37844;57.126;24.288;2022-12-29T07:09:43;29.25;;;17.17;;
51780;SDS011;37844;57.126;24.288;2022-12-29T07:12:09;28.83;;;18.10;;
51780;SDS011;37844;57.126;24.288;2022-12-29T07:14:34;29.02;;;17.52;;
51780;SDS011;37844;57.126;24.288;2022-12-29T07:17:01;33.08;;;17.83;;
51780;SDS011;37844;57.126;24.288;2022-12-29T07:19:27;27.55;;;17.52;;
51780;SDS011;37844;57.126;24.288;2022-12-29T07:21:54;32.97;;;18.42;;
51780;SDS011;37844;57.126;24.288;2022-12-29T07:24:20;31.48;;;18.73;;
51780;SDS011;37844;57.126;24.288;2022-12-29T07:26:45;27.65;;;17.33;;
51780;SDS011;37844;57.126;24.288;2022-12-29T07:29:11;34.40;;;18.13;;
51780;SDS011;37844;57.126;24.288;2022-12-29T07:31:36;33.08;;;19.63;;
51780;SDS011;37844;57.126;24.288;2022-12-29T07:34:01;45.70;;;19.15;;
51780;SDS011;37844;57.126;24.288;2022-12-29T07:36:27;31.70;;;18.10;;
51780;SDS011;37844;57.126;24.288;2022-12-29T07:38:53;33.20;;;21.13;;
51780;SDS011;37844;57.126;24.288;2022-12-29T07:41:18;35.83;;;21.83;;
51780;SDS011;37844;57.126;24.288;2022-12-29T07:43:46;30.52;;;18.73;;
51780;SDS011;37844;57.126;24.288;2022-12-29T07:46:13;45.07;;;19.83;;
51780;SDS011;37844;57.126;24.288;2022-12-29T07:48:39;41.25;;;20.17;;
51780;SDS011;37844;57.126;24.288;2022-12-29T07:51:04;38.80;;;20.38;;
51780;SDS011;37844;57.126;24.288;2022-12-29T07:53:30;45.50;;;18.08;;
51780;SDS011;37844;57.126;24.288;2022-12-29T07:55:55;32.67;;;18.77;;
51780;SDS011;37844;57.126;24.288;2022-12-29T07:58:21;35.92;;;20.25;;
51780;SDS011;37844;57.126;24.288;2022-12-29T08:00:46;36.35;;;19.27;;
51780;SDS011;37844;57.126;24.288;2022-12-29T08:03:12;44.75;;;23.73;;
51780;SDS011;37844;57.126;24.288;2022-12-29T08:05:37;34.47;;;20.52;;
51780;SDS011;37844;57.126;24.288;2022-12-29T08:08:03;35.58;;;19.23;;
51780;SDS011;37844;57.126;24.288;2022-12-29T08:10:28;44.05;;;19.30;;
51780;SDS011;37844;57.126;24.288;2022-12-29T08:12:54;36.72;;;20.02;;
51780;SDS011;37844;57.126;24.288;2022-12-29T08:15:19;36.97;;;18.35;;
51780;SDS011;37844;57.126;24.288;2022-12-29T08:17:44;34.67;;;19.70;;
51780;SDS011;37844;57.126;24.288;2022-12-29T08:20:10;60.15;;;23.75;;
51780;SDS011;37844;57.126;24.288;2022-12-29T08:22:36;33.47;;;18.13;;
51780;SDS011;37844;57.126;24.288;2022-12-29T08:25:02;33.53;;;19.80;;
51780;SDS011;37844;57.126;24.288;2022-12-29T08:27:28;38.03;;;21.63;;
51780;SDS011;37844;57.126;24.288;2022-12-29T08:29:53;40.55;;;20.33;;
51780;SDS011;37844;57.126;24.288;2022-12-29T08:32:19;37.50;;;19.40;;
51780;SDS011;37844;57.126;24.288;2022-12-29T08:34:45;37.10;;;21.90;;
51780;SDS011;37844;57.126;24.288;2022-12-29T08:37:10;34.78;;;19.95;;
51780;SDS011;37844;57.126;24.288;2022-12-29T08:39:36;47.33;;;22.15;;
51780;SDS011;37844;57.126;24.288;2022-12-29T08:42:01;34.70;;;21.35;;
51780;SDS011;37844;57.126;24.288;2022-12-29T08:44:27;38.28;;;20.60;;
51780;SDS011;37844;57.126;24.288;2022-12-29T08:46:52;35.13;;;20.02;;
51780;SDS011;37844;57.126;24.288;2022-12-29T08:49:18;35.63;;;19.85;;
51780;SDS011;37844;57.126;24.288;2022-12-29T08:51:43;40.72;;;22.25;;
51780;SDS011;37844;57.126;24.288;2022-12-29T08:54:08;36.65;;;20.63;;
51780;SDS011;37844;57.126;24.288;2022-12-29T08:56:34;33.17;;;19.65;;
51780;SDS011;37844;57.126;24.288;2022-12-29T08:58:59;43.45;;;21.30;;
51780;SDS011;37844;57.126;24.288;2022-12-29T09:01:25;35.13;;;21.83;;
51780;SDS011;37844;57.126;24.288;2022-12-29T09:03:50;34.40;;;20.05;;
51780;SDS011;37844;57.126;24.288;2022-12-29T09:06:16;36.33;;;21.90;;
51780;SDS011;37844;57.126;24.288;2022-12-29T09:08:43;33.25;;;19.90;;
51780;SDS011;37844;57.126;24.288;2022-12-29T09:11:10;36.40;;;20.67;;
51780;SDS011;37844;57.126;24.288;2022-12-29T09:13:40;34.47;;;21.33;;
51780;SDS011;37844;57.126;24.288;2022-12-29T09:16:06;36.15;;;19.05;;
51780;SDS011;37844;57.126;24.288;2022-12-29T09:18:32;40.72;;;21.48;;
51780;SDS011;37844;57.126;24.288;2022-12-29T09:20:59;35.97;;;21.25;;
51780;SDS011;37844;57.126;24.288;2022-12-29T09:23:26;35.20;;;21.15;;
51780;SDS011;37844;57.126;24.288;2022-12-29T09:25:52;36.70;;;19.88;;
51780;SDS011;37844;57.126;24.288;2022-12-29T09:28:21;32.53;;;19.88;;
51780;SDS011;37844;57.126;24.288;2022-12-29T09:30:48;35.25;;;20.90;;
51780;SDS011;37844;57.126;24.288;2022-12-29T09:33:14;32.53;;;19.55;;
51780;SDS011;37844;57.126;24.288;2022-12-29T09:35:43;32.47;;;20.55;;
51780;SDS011;37844;57.126;24.288;2022-12-29T09:38:10;32.60;;;20.55;;
51780;SDS011;37844;57.126;24.288;2022-12-29T09:40:37;27.00;;;18.42;;
51780;SDS011;37844;57.126;24.288;2022-12-29T09:48:25;27.52;;;17.48;;
51780;SDS011;37844;57.126;24.288;2022-12-29T09:50:55;28.65;;;18.58;;
51780;SDS011;37844;57.126;24.288;2022-12-29T09:53:31;29.60;;;18.00;;
51780;SDS011;37844;57.126;24.288;2022-12-29T09:56:00;31.30;;;19.08;;
51780;SDS011;37844;57.126;24.288;2022-12-29T09:58:30;30.95;;;18.85;;
51780;SDS011;37844;57.126;24.288;2022-12-29T10:01:21;32.63;;;19.80;;
51780;SDS011;37844;57.126;24.288;2022-12-29T10:03:57;29.10;;;17.95;;
51780;SDS011;37844;57.126;24.288;2022-12-29T10:06:25;27.48;;;18.15;;
51780;SDS011;37844;57.126;24.288;2022-12-29T10:09:01;30.35;;;19.08;;
51780;SDS011;37844;57.126;24.288;2022-12-29T10:14:06;25.90;;;15.98;;
51780;SDS011;37844;57.126;24.288;2022-12-29T10:17:12;34.85;;;18.38;;
51780;SDS011;37844;57.126;24.288;2022-12-29T10:25:26;24.75;;;16.23;;
51780;SDS011;37844;57.126;24.288;2022-12-29T10:27:55;22.75;;;15.23;;
51780;SDS011;37844;57.126;24.288;2022-12-29T10:30:24;27.33;;;16.92;;
51780;SDS011;37844;57.126;24.288;2022-12-29T10:33:25;27.15;;;16.90;;
51780;SDS011;37844;57.126;24.288;2022-12-29T10:35:49;22.50;;;14.88;;
51780;SDS011;37844;57.126;24.288;2022-12-29T10:38:35;26.20;;;15.88;;
51780;SDS011;37844;57.126;24.288;2022-12-29T10:44:20;21.83;;;13.60;;
51780;SDS011;37844;57.126;24.288;2022-12-29T10:46:59;22.40;;;13.57;;
51780;SDS011;37844;57.126;24.288;2022-12-29T10:49:30;18.88;;;12.20;;
51780;SDS011;37844;57.126;24.288;2022-12-29T10:51:58;22.80;;;12.90;;
51780;SDS011;37844;57.126;24.288;2022-12-29T10:54:39;20.13;;;12.45;;
51780;SDS011;37844;57.126;24.288;2022-12-29T10:57:14;17.80;;;12.15;;
51780;SDS011;37844;57.126;24.288;2022-12-29T11:07:15;20.70;;;12.23;;
51780;SDS011;37844;57.126;24.288;2022-12-29T11:09:42;17.35;;;11.95;;
51780;SDS011;37844;57.126;24.288;2022-12-29T11:15:00;19.48;;;11.15;;
51780;SDS011;37844;57.126;24.288;2022-12-29T11:17:26;21.75;;;12.52;;
51780;SDS011;37844;57.126;24.288;2022-12-29T11:19:58;21.10;;;12.55;;
51780;SDS011;37844;57.126;24.288;2022-12-29T11:22:25;17.95;;;12.27;;
51780;SDS011;37844;57.126;24.288;2022-12-29T11:24:53;20.85;;;11.77;;
51780;SDS011;37844;57.126;24.288;2022-12-29T11:27:21;13.52;;;9.30;;
51780;SDS011;37844;57.126;24.288;2022-12-29T11:29:49;17.02;;;9.80;;
51780;SDS011;37844;57.126;24.288;2022-12-29T11:32:20;18.88;;;11.52;;
51780;SDS011;37844;57.126;24.288;2022-12-29T11:34:47;16.42;;;11.80;;
51780;SDS011;37844;57.126;24.288;2022-12-29T11:37:23;18.23;;;10.60;;
51780;SDS011;37844;57.126;24.288;2022-12-29T11:39:57;18.38;;;11.90;;
51780;SDS011;37844;57.126;24.288;2022-12-29T11:47:41;16.77;;;10.95;;
51780;SDS011;37844;57.126;24.288;2022-12-29T11:50:16;18.35;;;11.65;;
51780;SDS011;37844;57.126;24.288;2022-12-29T11:52:45;16.58;;;10.48;;
51780;SDS011;37844;57.126;24.288;2022-12-29T11:55:17;17.35;;;11.07;;
51780;SDS011;37844;57.126;24.288;2022-12-29T11:57:45;20.35;;;11.43;;
51780;SDS011;37844;57.126;24.288;2022-12-29T12:00:19;16.02;;;10.52;;
51780;SDS011;37844;57.126;24.288;2022-12-29T12:02:59;20.05;;;11.05;;
51780;SDS011;37844;57.126;24.288;2022-12-29T12:07:54;21.35;;;13.52;;
51780;SDS011;37844;57.126;24.288;2022-12-29T12:10:27;20.48;;;11.07;;
51780;SDS011;37844;57.126;24.288;2022-12-29T12:12:59;18.88;;;12.70;;
51780;SDS011;37844;57.126;24.288;2022-12-29T12:15:39;20.85;;;13.55;;
51780;SDS011;37844;57.126;24.288;2022-12-29T12:21:38;26.88;;;13.70;;
51780;SDS011;37844;57.126;24.288;2022-12-29T12:29:35;27.23;;;14.65;;
51780;SDS011;37844;57.126;24.288;2022-12-29T12:34:46;21.17;;;13.98;;
51780;SDS011;37844;57.126;24.288;2022-12-29T12:48:36;24.42;;;15.35;;
51780;SDS011;37844;57.126;24.288;2022-12-29T12:54:20;25.27;;;16.30;;
51780;SDS011;37844;57.126;24.288;2022-12-29T13:00:00;23.02;;;14.90;;
51780;SDS011;37844;57.126;24.288;2022-12-29T13:14:03;20.83;;;14.63;;
51780;SDS011;37844;57.126;24.288;2022-12-29T13:19:55;28.05;;;15.55;;
51780;SDS011;37844;57.126;24.288;2022-12-29T13:22:39;20.95;;;15.05;;
51780;SDS011;37844;57.126;24.288;2022-12-29T13:30:20;24.50;;;16.75;;
51780;SDS011;37844;57.126;24.288;2022-12-29T13:38:13;23.05;;;14.30;;
51780;SDS011;37844;57.126;24.288;2022-12-29T13:40:44;20.38;;;14.07;;
51780;SDS011;37844;57.126;24.288;2022-12-29T13:43:12;22.52;;;15.45;;
51780;SDS011;37844;57.126;24.288;2022-12-29T13:45:40;26.77;;;17.33;;
51780;SDS011;37844;57.126;24.288;2022-12-29T13:51:22;23.95;;;16.67;;
51780;SDS011;37844;57.126;24.288;2022-12-29T13:56:40;24.63;;;16.65;;
51780;SDS011;37844;57.126;24.288;2022-12-29T13:59:27;25.40;;;15.32;;
51780;SDS011;37844;57.126;24.288;2022-12-29T14:07:43;22.08;;;15.43;;
51780;SDS011;37844;57.126;24.288;2022-12-29T14:15:44;20.67;;;13.90;;
51780;SDS011;37844;57.126;24.288;2022-12-29T14:18:48;21.48;;;14.88;;
51780;SDS011;37844;57.126;24.288;2022-12-29T14:21:10;23.48;;;13.63;;
51780;SDS011;37844;57.126;24.288;2022-12-29T14:23:46;20.92;;;15.68;;
51780;SDS011;37844;57.126;24.288;2022-12-29T14:26:14;26.52;;;15.70;;
51780;SDS011;37844;57.126;24.288;2022-12-29T14:28:44;25.42;;;14.85;;
51780;SDS011;37844;57.126;24.288;2022-12-29T14:39:03;28.52;;;17.42;;
51780;SDS011;37844;57.126;24.288;2022-12-29T14:41:49;26.85;;;16.38;;
51780;SDS011;37844;57.126;24.288;2022-12-29T14:44:48;21.13;;;15.20;;
51780;SDS011;37844;57.126;24.288;2022-12-29T14:47:16;24.30;;;15.68;;
51780;SDS011;37844;57.126;24.288;2022-12-29T14:49:45;23.83;;;16.27;;
51780;SDS011;37844;57.126;24.288;2022-12-29T14:52:21;25.95;;;17.52;;
51780;SDS011;37844;57.126;24.288;2022-12-29T14:54:54;28.35;;;17.80;;
51780;SDS011;37844;57.126;24.288;2022-12-29T14:57:26;28.52;;;18.00;;
51780;SDS011;37844;57.126;24.288;2022-12-29T15:00:05;26.85;;;18.30;;
51780;SDS011;37844;57.126;24.288;2022-12-29T15:02:39;27.80;;;17.10;;
51780;SDS011;37844;57.126;24.288;2022-12-29T15:05:52;31.00;;;19.83;;
51780;SDS011;37844;57.126;24.288;2022-12-29T15:08:02;34.08;;;20.55;;
51780;SDS011;37844;57.126;24.288;2022-12-29T15:10:34;32.13;;;19.27;;
51780;SDS011;37844;57.126;24.288;2022-12-29T15:13:05;31.45;;;18.77;;
51780;SDS011;37844;57.126;24.288;2022-12-29T15:15:40;39.72;;;21.98;;
51780;SDS011;37844;57.126;24.288;2022-12-29T15:18:13;33.55;;;20.65;;
51780;SDS011;37844;57.126;24.288;2022-12-29T15:20:50;39.20;;;22.10;;
51780;SDS011;37844;57.126;24.288;2022-12-29T15:23:18;39.03;;;21.60;;
51780;SDS011;37844;57.126;24.288;2022-12-29T15:26:25;35.90;;;23.48;;
51780;SDS011;37844;57.126;24.288;2022-12-29T15:28:37;36.50;;;20.15;;
51780;SDS011;37844;57.126;24.288;2022-12-29T15:31:04;34.75;;;22.02;;
51780;SDS011;37844;57.126;24.288;2022-12-29T15:33:31;42.78;;;25.35;;
51780;SDS011;37844;57.126;24.288;2022-12-29T15:36:08;35.65;;;23.13;;
51780;SDS011;37844;57.126;24.288;2022-12-29T15:38:37;38.53;;;24.42;;
51780;SDS011;37844;57.126;24.288;2022-12-29T15:41:11;39.17;;;23.40;;
51780;SDS011;37844;57.126;24.288;2022-12-29T15:46:17;33.45;;;22.05;;
51780;SDS011;37844;57.126;24.288;2022-12-29T15:48:43;39.55;;;21.48;;
51780;SDS011;37844;57.126;24.288;2022-12-29T15:51:19;34.40;;;19.70;;
51780;SDS011;37844;57.126;24.288;2022-12-29T15:53:55;31.17;;;20.20;;
51780;SDS011;37844;57.126;24.288;2022-12-29T15:56:22;29.67;;;20.58;;
51780;SDS011;37844;57.126;24.288;2022-12-29T15:58:48;27.90;;;17.30;;
51780;SDS011;37844;57.126;24.288;2022-12-29T16:01:37;26.20;;;17.98;;
51780;SDS011;37844;57.126;24.288;2022-12-29T16:04:08;29.13;;;18.52;;
51780;SDS011;37844;57.126;24.288;2022-12-29T16:06:38;26.77;;;17.40;;
51780;SDS011;37844;57.126;24.288;2022-12-29T16:09:15;26.90;;;17.92;;
51780;SDS011;37844;57.126;24.288;2022-12-29T16:11:53;26.25;;;16.85;;
51780;SDS011;37844;57.126;24.288;2022-12-29T16:14:23;24.33;;;16.85;;
51780;SDS011;37844;57.126;24.288;2022-12-29T16:17:05;22.52;;;15.60;;
51780;SDS011;37844;57.126;24.288;2022-12-29T16:19:34;23.23;;;15.00;;
51780;SDS011;37844;57.126;24.288;2022-12-29T16:22:03;21.98;;;15.50;;
51780;SDS011;37844;57.126;24.288;2022-12-29T16:24:36;25.95;;;15.63;;
51780;SDS011;37844;57.126;24.288;2022-12-29T16:27:14;27.15;;;16.95;;
51780;SDS011;37844;57.126;24.288;2022-12-29T16:29:48;27.75;;;15.80;;
51780;SDS011;37844;57.126;24.288;2022-12-29T16:32:29;24.33;;;14.98;;
51780;SDS011;37844;57.126;24.288;2022-12-29T16:37:48;21.40;;;14.02;;
51780;SDS011;37844;57.126;24.288;2022-12-29T16:40:32;21.55;;;15.18;;
51780;SDS011;37844;57.126;24.288;2022-12-29T16:43:01;25.35;;;15.50;;
51780;SDS011;37844;57.126;24.288;2022-12-29T16:50:39;20.25;;;14.60;;
51780;SDS011;37844;57.126;24.288;2022-12-29T16:53:06;26.95;;;17.83;;
51780;SDS011;37844;57.126;24.288;2022-12-29T16:55:46;23.70;;;14.93;;
51780;SDS011;37844;57.126;24.288;2022-12-29T16:58:16;20.05;;;15.00;;
51780;SDS011;37844;57.126;24.288;2022-12-29T17:00:46;22.35;;;16.20;;
51780;SDS011;37844;57.126;24.288;2022-12-29T17:03:12;20.65;;;12.90;;
51780;SDS011;37844;57.126;24.288;2022-12-29T17:05:38;21.10;;;16.27;;
51780;SDS011;37844;57.126;24.288;2022-12-29T17:08:13;24.08;;;17.05;;
51780;SDS011;37844;57.126;24.288;2022-12-29T17:10:51;24.45;;;15.48;;
51780;SDS011;37844;57.126;24.288;2022-12-29T17:13:37;21.90;;;14.43;;
51780;SDS011;37844;57.126;24.288;2022-12-29T17:16:04;27.13;;;16.58;;
51780;SDS011;37844;57.126;24.288;2022-12-29T17:18:32;23.83;;;14.77;;
51780;SDS011;37844;57.126;24.288;2022-12-29T17:20:58;21.70;;;14.70;;